createdAt,value
2022-08-29T00:01:05.509Z,14.60
2022-08-29T00:03:32.589Z,14.50
2022-08-29T00:05:59.353Z,14.60
2022-08-29T00:08:26.099Z,14.50
2022-08-29T00:10:53.474Z,14.40
2022-08-29T00:13:21.361Z,14.40
2022-08-29T00:15:48.630Z,14.40
2022-08-29T00:18:16.535Z,14.30
2022-08-29T00:20:44.599Z,14.30
2022-08-29T00:23:12.489Z,14.20
2022-08-29T00:25:39.570Z,14.20
2022-08-29T00:28:07.168Z,14.20
2022-08-29T00:30:36.151Z,14.10
2022-08-29T00:33:03.161Z,14.10
2022-08-29T00:35:36.951Z,14.10
2022-08-29T00:38:06.799Z,14.10
2022-08-29T00:40:47.870Z,14.10
2022-08-29T00:43:22.947Z,14.10
2022-08-29T00:46:27.316Z,14.10
2022-08-29T00:48:58.735Z,14.10
2022-08-29T00:51:25.628Z,14.00
2022-08-29T00:54:01.830Z,14.00
2022-08-29T00:56:29.561Z,14.00
2022-08-29T00:59:02.341Z,14.00
2022-08-29T01:01:29.319Z,14.00
2022-08-29T01:03:56.190Z,13.90
2022-08-29T01:06:26.371Z,13.90
2022-08-29T01:08:57.536Z,13.80
2022-08-29T01:11:46.713Z,13.80
2022-08-29T01:14:14.715Z,13.70
2022-08-29T01:16:42.078Z,13.70
2022-08-29T01:19:23.968Z,13.70
2022-08-29T01:22:22.300Z,13.70
2022-08-29T01:24:51.249Z,13.70
2022-08-29T01:27:20.694Z,13.60
2022-08-29T01:29:47.964Z,13.60
2022-08-29T01:32:45.883Z,13.50
2022-08-29T01:35:13.075Z,13.50
2022-08-29T01:37:42.225Z,13.50
2022-08-29T01:40:10.239Z,13.40
2022-08-29T01:42:37.338Z,13.40
2022-08-29T01:45:05.423Z,13.40
2022-08-29T01:47:38.711Z,13.30
2022-08-29T01:50:12.803Z,13.20
2022-08-29T01:52:41.197Z,13.20
2022-08-29T01:55:08.159Z,13.10
2022-08-29T01:57:38.082Z,13.10
2022-08-29T02:00:07.970Z,13.10
2022-08-29T02:02:34.935Z,13.10
2022-08-29T02:05:01.661Z,13.00
2022-08-29T02:07:29.509Z,13.00
2022-08-29T02:09:56.245Z,13.00
2022-08-29T02:12:29.466Z,13.00
2022-08-29T02:14:56.236Z,12.90
2022-08-29T02:17:23.539Z,12.80
2022-08-29T02:19:50.378Z,12.80
2022-08-29T02:22:19.039Z,12.80
2022-08-29T02:24:45.854Z,12.70
2022-08-29T02:27:12.653Z,12.60
2022-08-29T02:29:40.011Z,12.60
2022-08-29T02:32:13.067Z,12.60
2022-08-29T02:34:44.669Z,12.60
2022-08-29T02:37:14.974Z,12.60
2022-08-29T02:39:41.811Z,12.60
2022-08-29T02:42:08.509Z,12.50
2022-08-29T02:44:35.188Z,12.50
2022-08-29T02:47:02.018Z,12.50
2022-08-29T02:49:28.709Z,12.50
2022-08-29T02:51:57.332Z,12.50
2022-08-29T02:54:24.030Z,12.40
2022-08-29T02:56:50.874Z,12.50
2022-08-29T02:59:17.814Z,12.50
2022-08-29T03:01:44.596Z,12.50
2022-08-29T03:04:11.396Z,12.50
2022-08-29T03:06:38.060Z,12.40
2022-08-29T03:09:04.854Z,12.40
2022-08-29T03:11:31.563Z,12.30
2022-08-29T03:13:58.299Z,12.30
2022-08-29T03:16:26.539Z,12.20
2022-08-29T03:18:54.421Z,12.20
2022-08-29T03:21:24.885Z,12.20
2022-08-29T03:23:53.109Z,12.20
2022-08-29T03:26:20.356Z,12.20
2022-08-29T03:28:47.302Z,12.20
2022-08-29T03:31:14.490Z,12.20
2022-08-29T03:33:41.836Z,12.20
2022-08-29T03:36:13.888Z,12.20
2022-08-29T03:38:43.515Z,12.10
2022-08-29T03:41:10.647Z,12.10
2022-08-29T03:43:37.529Z,12.10
2022-08-29T03:46:04.299Z,12.10
2022-08-29T03:48:33.225Z,12.10
2022-08-29T03:50:59.962Z,12.10
2022-08-29T03:53:26.914Z,12.10
2022-08-29T03:55:54.034Z,12.00
2022-08-29T03:58:20.801Z,12.10
2022-08-29T04:00:49.213Z,12.00
2022-08-29T04:03:16.805Z,12.00
2022-08-29T04:05:43.532Z,12.00
2022-08-29T04:08:10.322Z,12.00
2022-08-29T04:10:38.712Z,12.00
2022-08-29T04:13:07.335Z,12.00
2022-08-29T04:15:35.402Z,12.00
2022-08-29T04:18:04.529Z,12.00
2022-08-29T04:20:38.367Z,12.00
2022-08-29T04:23:06.241Z,11.90
2022-08-29T04:25:37.588Z,11.90
2022-08-29T04:28:10.336Z,11.90
2022-08-29T04:30:38.421Z,11.90
2022-08-29T04:33:05.633Z,11.90
2022-08-29T04:35:32.417Z,11.90
2022-08-29T04:37:59.064Z,11.90
2022-08-29T04:40:25.822Z,11.90
2022-08-29T04:42:52.640Z,11.90
2022-08-29T04:45:21.606Z,11.90
2022-08-29T04:47:48.453Z,11.90
2022-08-29T04:50:21.780Z,11.90
2022-08-29T04:52:50.082Z,12.10
2022-08-29T04:55:21.506Z,12.20
2022-08-29T04:57:52.180Z,12.40
2022-08-29T05:00:23.252Z,12.60
2022-08-29T05:02:50.583Z,12.90
2022-08-29T05:05:17.943Z,13.20
2022-08-29T05:07:46.373Z,13.30
2022-08-29T05:10:17.315Z,13.60
2022-08-29T05:12:44.734Z,13.80
2022-08-29T05:15:12.543Z,14.10
2022-08-29T05:17:39.691Z,14.30
2022-08-29T05:20:07.782Z,14.60
2022-08-29T05:22:35.635Z,15.00
2022-08-29T05:25:04.902Z,15.40
2022-08-29T05:27:32.175Z,15.80
2022-08-29T05:29:58.902Z,16.20
2022-08-29T05:32:25.949Z,16.50
2022-08-29T05:34:52.713Z,16.80
2022-08-29T05:37:20.961Z,17.00
2022-08-29T05:39:49.351Z,17.20
2022-08-29T05:42:17.659Z,17.30
2022-08-29T05:44:44.675Z,17.50
2022-08-29T05:47:13.511Z,17.80
2022-08-29T05:49:42.411Z,18.00
2022-08-29T05:52:10.654Z,18.20
2022-08-29T05:54:40.392Z,18.40
2022-08-29T05:57:08.514Z,18.50
2022-08-29T05:59:36.344Z,18.70
2022-08-29T06:02:04.562Z,18.70
2022-08-29T06:04:31.702Z,18.90
2022-08-29T06:06:58.469Z,18.90
2022-08-29T06:09:25.662Z,18.90
2022-08-29T06:11:57.606Z,19.00
2022-08-29T06:14:25.441Z,19.10
2022-08-29T06:16:53.601Z,19.30
2022-08-29T06:19:20.367Z,19.60
2022-08-29T06:21:47.616Z,19.80
2022-08-29T06:24:15.097Z,20.00
2022-08-29T06:26:42.909Z,20.20
2022-08-29T06:29:10.614Z,20.20
2022-08-29T06:31:37.952Z,20.30
2022-08-29T06:34:06.793Z,20.30
2022-08-29T06:36:36.967Z,20.60
2022-08-29T06:39:07.941Z,20.90
2022-08-29T06:41:35.837Z,21.20
2022-08-29T06:44:07.071Z,21.50
2022-08-29T06:46:36.418Z,21.80
2022-08-29T06:49:05.992Z,22.10
2022-08-29T06:51:35.307Z,22.30
2022-08-29T06:54:07.502Z,22.40
2022-08-29T06:56:36.702Z,22.70
2022-08-29T06:59:05.792Z,22.80
2022-08-29T07:01:33.453Z,22.90
2022-08-29T07:04:01.961Z,23.10
2022-08-29T07:06:29.126Z,23.40
2022-08-29T07:08:56.905Z,23.80
2022-08-29T07:11:25.999Z,24.20
2022-08-29T07:13:52.871Z,24.70
2022-08-29T07:16:19.807Z,25.00
2022-08-29T07:18:46.999Z,25.20
2022-08-29T07:21:20.411Z,25.30
2022-08-29T07:23:48.629Z,25.20
2022-08-29T07:26:28.809Z,25.40
2022-08-29T07:28:59.122Z,25.50
2022-08-29T07:31:30.761Z,25.80
2022-08-29T07:34:02.182Z,26.30
2022-08-29T07:36:31.450Z,26.30
2022-08-29T07:38:58.658Z,26.50
2022-08-29T07:41:25.794Z,26.60
2022-08-29T07:43:52.817Z,26.90
2022-08-29T07:46:21.094Z,27.30
2022-08-29T07:48:48.431Z,27.60
2022-08-29T07:51:18.369Z,27.60
2022-08-29T07:53:45.844Z,27.60
2022-08-29T07:56:37.800Z,27.70
2022-08-29T07:59:05.897Z,28.10
2022-08-29T08:01:32.857Z,28.50
2022-08-29T08:03:59.715Z,28.90
2022-08-29T08:06:27.638Z,29.30
2022-08-29T08:08:55.603Z,29.60
2022-08-29T08:11:26.104Z,29.70
2022-08-29T08:13:53.997Z,30.10
2022-08-29T08:16:23.164Z,30.40
2022-08-29T08:18:50.725Z,30.30
2022-08-29T08:21:18.377Z,30.00
2022-08-29T08:23:45.229Z,29.50
2022-08-29T08:26:14.053Z,29.70
2022-08-29T08:28:42.230Z,29.90
2022-08-29T08:31:10.563Z,30.10
2022-08-29T08:33:40.788Z,30.30
2022-08-29T08:36:23.886Z,30.60
2022-08-29T08:38:51.899Z,30.90
2022-08-29T08:41:33.156Z,31.30
2022-08-29T08:44:07.740Z,31.70
2022-08-29T08:46:41.249Z,31.50
2022-08-29T08:49:29.117Z,31.80
2022-08-29T08:52:02.051Z,32.50
2022-08-29T08:54:34.331Z,32.90
2022-08-29T08:57:10.252Z,33.10
2022-08-29T08:59:43.141Z,33.60
2022-08-29T09:02:35.260Z,34.10
2022-08-29T09:05:31.186Z,34.20
2022-08-29T09:08:04.372Z,34.20
2022-08-29T09:10:31.379Z,34.30
2022-08-29T09:13:16.756Z,34.50
2022-08-29T09:15:47.331Z,34.30
2022-08-29T09:18:37.324Z,34.00
2022-08-29T09:21:23.800Z,33.10
2022-08-29T09:23:57.671Z,32.50
2022-08-29T09:26:24.709Z,32.30
2022-08-29T09:28:51.469Z,31.80
2022-08-29T09:31:25.580Z,31.10
2022-08-29T09:34:02.353Z,31.30
2022-08-29T09:36:47.341Z,32.40
2022-08-29T09:39:30.214Z,33.00
2022-08-29T09:42:13.910Z,33.20
2022-08-29T09:44:51.007Z,33.40
2022-08-29T09:47:25.049Z,33.30
2022-08-29T09:50:12.604Z,32.50
2022-08-29T09:52:51.595Z,32.60
2022-08-29T09:55:27.468Z,33.60
2022-08-29T09:57:59.447Z,34.40
2022-08-29T10:00:38.564Z,35.20
2022-08-29T10:03:10.642Z,35.50
2022-08-29T10:05:44.298Z,34.90
2022-08-29T10:08:34.988Z,34.40
2022-08-29T10:11:24.871Z,33.70
2022-08-29T10:13:56.399Z,34.00
2022-08-29T10:16:48.102Z,34.90
2022-08-29T10:19:33.140Z,35.30
2022-08-29T10:22:42.147Z,35.70
2022-08-29T10:25:19.868Z,36.20
2022-08-29T10:27:57.612Z,36.80
2022-08-29T10:30:31.397Z,37.20
2022-08-29T10:33:09.435Z,37.60
2022-08-29T10:35:42.457Z,37.30
2022-08-29T10:38:22.840Z,36.40
2022-08-29T10:40:59.288Z,35.80
2022-08-29T10:43:44.384Z,36.10
2022-08-29T10:46:24.642Z,36.40
2022-08-29T10:49:29.417Z,36.40
2022-08-29T10:52:06.086Z,36.00
2022-08-29T10:54:47.967Z,35.10
2022-08-29T10:57:46.667Z,34.60
2022-08-29T11:00:20.734Z,34.10
2022-08-29T11:03:25.062Z,33.40
2022-08-29T11:06:18.381Z,33.00
2022-08-29T11:08:50.574Z,33.00
2022-08-29T11:11:19.342Z,33.70
2022-08-29T11:14:05.402Z,34.50
2022-08-29T11:16:40.969Z,35.00
2022-08-29T11:19:16.956Z,35.30
2022-08-29T11:21:56.678Z,35.60
2022-08-29T11:24:31.686Z,35.90
2022-08-29T11:27:19.920Z,35.80
2022-08-29T11:29:54.213Z,35.60
2022-08-29T11:32:32.359Z,35.40
2022-08-29T11:35:20.629Z,34.90
2022-08-29T11:38:03.654Z,34.10
2022-08-29T11:43:48.581Z,32.60
2022-08-29T11:46:16.855Z,32.90
2022-08-29T11:48:55.763Z,33.80
2022-08-29T11:51:36.564Z,34.90
2022-08-29T11:54:26.086Z,35.50
2022-08-29T11:57:02.205Z,35.60
2022-08-29T11:59:49.887Z,35.70
2022-08-29T12:02:29.027Z,35.90
2022-08-29T12:05:09.295Z,35.70
2022-08-29T12:07:51.894Z,34.80
2022-08-29T12:10:24.327Z,33.70
2022-08-29T12:12:56.834Z,33.30
2022-08-29T12:15:32.837Z,33.30
2022-08-29T12:18:03.417Z,33.50
2022-08-29T12:20:30.633Z,34.10
2022-08-29T12:23:05.502Z,34.80
2022-08-29T12:25:55.233Z,35.30
2022-08-29T12:28:36.112Z,35.60
2022-08-29T12:31:26.308Z,35.80
2022-08-29T12:34:14.307Z,36.00
2022-08-29T12:36:56.554Z,36.30
2022-08-29T12:39:45.852Z,36.20
2022-08-29T12:42:54.106Z,36.30
2022-08-29T12:45:27.241Z,36.60
2022-08-29T12:47:57.723Z,36.20
2022-08-29T12:50:29.190Z,35.60
2022-08-29T12:53:15.395Z,35.00
2022-08-29T12:55:46.214Z,33.70
2022-08-29T12:58:14.907Z,32.60
2022-08-29T13:00:42.133Z,32.10
2022-08-29T13:03:16.317Z,31.60
2022-08-29T13:05:44.604Z,31.90
2022-08-29T13:08:25.686Z,32.20
2022-08-29T13:11:02.093Z,32.10
2022-08-29T13:13:30.354Z,31.70
2022-08-29T13:16:02.907Z,31.20
2022-08-29T13:18:33.764Z,30.80
2022-08-29T13:21:13.163Z,30.60
2022-08-29T13:23:57.703Z,30.90
2022-08-29T13:26:27.675Z,31.20
2022-08-29T13:28:55.385Z,31.60
2022-08-29T13:31:28.775Z,32.10
2022-08-29T13:33:55.588Z,32.30
2022-08-29T13:36:31.280Z,32.30
2022-08-29T13:39:21.375Z,32.40
2022-08-29T13:42:07.300Z,32.30
2022-08-29T13:44:44.919Z,32.20
2022-08-29T13:47:16.486Z,32.40
2022-08-29T13:49:43.258Z,32.90
2022-08-29T13:52:10.853Z,33.10
2022-08-29T13:54:40.530Z,33.00
2022-08-29T13:57:11.459Z,32.80
2022-08-29T13:59:38.278Z,32.80
2022-08-29T14:02:10.182Z,33.20
2022-08-29T14:04:39.883Z,33.60
2022-08-29T14:07:09.560Z,33.90
2022-08-29T14:09:39.009Z,34.00
2022-08-29T14:12:06.876Z,34.40
2022-08-29T14:14:33.825Z,34.50
2022-08-29T14:17:00.704Z,34.60
2022-08-29T14:19:29.222Z,34.60
2022-08-29T14:21:59.112Z,34.70
2022-08-29T14:24:29.434Z,35.00
2022-08-29T14:27:01.445Z,35.00
2022-08-29T14:29:30.741Z,34.80
2022-08-29T14:31:58.943Z,34.70
2022-08-29T14:34:32.216Z,34.00
2022-08-29T14:37:01.230Z,33.40
2022-08-29T14:39:28.419Z,32.90
2022-08-29T14:41:55.553Z,32.20
2022-08-29T14:44:22.997Z,31.30
2022-08-29T14:46:51.054Z,30.60
2022-08-29T14:49:19.136Z,30.40
2022-08-29T14:51:46.601Z,30.60
2022-08-29T14:54:13.927Z,31.10
2022-08-29T14:56:48.805Z,31.40
2022-08-29T14:59:21.177Z,31.40
2022-08-29T15:01:53.673Z,31.60
2022-08-29T15:04:21.735Z,31.80
2022-08-29T15:07:02.022Z,31.80
2022-08-29T15:09:29.115Z,31.80
2022-08-29T15:11:55.906Z,31.70
2022-08-29T15:14:22.813Z,31.60
2022-08-29T15:16:49.601Z,31.40
2022-08-29T15:22:05.391Z,30.70
2022-08-29T15:24:32.639Z,29.90
2022-08-29T15:26:59.745Z,29.20
2022-08-29T15:29:27.473Z,28.60
2022-08-29T15:31:57.157Z,28.10
2022-08-29T15:34:25.650Z,27.80
2022-08-29T15:36:53.587Z,27.60
2022-08-29T15:39:20.783Z,27.30
2022-08-29T15:41:47.658Z,26.90
2022-08-29T15:44:14.573Z,26.70
2022-08-29T15:46:43.282Z,26.80
2022-08-29T15:49:19.430Z,26.80
2022-08-29T15:51:46.689Z,26.80
2022-08-29T15:54:14.125Z,26.80
2022-08-29T15:56:41.143Z,26.70
2022-08-29T15:59:09.629Z,26.50
2022-08-29T16:01:42.827Z,26.40
2022-08-29T16:04:10.891Z,26.30
2022-08-29T16:06:38.866Z,26.30
2022-08-29T16:09:15.179Z,26.30
2022-08-29T16:11:45.126Z,26.40
2022-08-29T16:17:00.476Z,26.30
2022-08-29T16:19:27.329Z,26.00
2022-08-29T16:21:59.768Z,25.90
2022-08-29T16:24:28.747Z,25.70
2022-08-29T16:26:56.072Z,25.60
2022-08-29T16:29:26.778Z,25.60
2022-08-29T16:31:57.900Z,25.50
2022-08-29T16:34:27.154Z,25.50
2022-08-29T16:36:58.780Z,25.40
2022-08-29T16:39:26.657Z,25.30
2022-08-29T16:41:53.945Z,25.20
2022-08-29T16:44:21.121Z,25.00
2022-08-29T16:46:47.831Z,25.00
2022-08-29T16:49:14.815Z,24.90
2022-08-29T16:51:41.637Z,24.80
2022-08-29T16:54:08.789Z,24.70
2022-08-29T16:56:35.829Z,24.60
2022-08-29T16:59:04.365Z,24.50
2022-08-29T17:01:39.055Z,24.40
2022-08-29T17:04:09.354Z,24.20
2022-08-29T17:06:36.439Z,24.00
2022-08-29T17:09:07.849Z,23.90
2022-08-29T17:11:36.719Z,23.80
2022-08-29T17:14:04.344Z,23.70
2022-08-29T17:16:31.718Z,23.60
2022-08-29T17:18:58.636Z,23.50
2022-08-29T17:21:26.650Z,23.40
2022-08-29T17:23:55.425Z,23.30
2022-08-29T17:26:23.443Z,23.20
2022-08-29T17:28:50.753Z,23.10
2022-08-29T17:31:18.108Z,22.90
2022-08-29T17:33:46.108Z,22.80
2022-08-29T17:36:13.571Z,22.70
2022-08-29T17:38:44.931Z,22.60
2022-08-29T17:41:15.196Z,22.60
2022-08-29T17:43:44.688Z,22.60
2022-08-29T17:46:11.719Z,22.50
2022-08-29T17:48:38.981Z,22.40
2022-08-29T17:51:06.154Z,22.30
2022-08-29T17:53:33.207Z,22.30
2022-08-29T17:56:25.270Z,22.10
2022-08-29T17:58:52.126Z,22.10
2022-08-29T18:01:19.185Z,22.00
2022-08-29T18:03:46.818Z,21.90
2022-08-29T18:06:14.815Z,21.90
2022-08-29T18:08:47.781Z,21.80
2022-08-29T18:11:17.002Z,21.60
2022-08-29T18:13:44.233Z,21.50
2022-08-29T18:16:11.689Z,21.40
2022-08-29T18:18:38.850Z,21.30
2022-08-29T18:21:06.225Z,21.10
2022-08-29T18:23:33.471Z,21.00
2022-08-29T18:26:00.874Z,20.80
2022-08-29T18:28:28.050Z,20.70
2022-08-29T18:30:55.042Z,20.60
2022-08-29T18:33:22.324Z,20.50
2022-08-29T18:35:49.166Z,20.40
2022-08-29T18:38:16.593Z,20.30
2022-08-29T18:40:44.640Z,20.30
2022-08-29T18:43:12.265Z,20.20
2022-08-29T18:45:40.871Z,20.10
2022-08-29T18:48:07.904Z,20.00
2022-08-29T18:50:34.767Z,20.00
2022-08-29T18:53:02.589Z,19.80
2022-08-29T18:55:29.405Z,19.80
2022-08-29T18:57:56.374Z,19.70
2022-08-29T19:00:25.146Z,19.70
2022-08-29T19:02:57.099Z,19.60
2022-08-29T19:05:26.709Z,19.50
2022-08-29T19:07:55.288Z,19.50
2022-08-29T19:10:25.952Z,19.50
2022-08-29T19:12:54.266Z,19.40
2022-08-29T19:15:23.629Z,19.40
2022-08-29T19:17:51.469Z,19.30
2022-08-29T19:20:42.813Z,19.30
2022-08-29T19:23:09.957Z,19.30
2022-08-29T19:25:37.387Z,19.20
2022-08-29T19:28:05.988Z,19.20
2022-08-29T19:30:33.552Z,19.10
2022-08-29T19:33:00.550Z,19.10
2022-08-29T19:35:27.437Z,19.10
2022-08-29T19:37:54.805Z,19.00
2022-08-29T19:40:23.364Z,18.90
2022-08-29T19:42:50.791Z,18.90
2022-08-29T19:45:20.523Z,18.80
2022-08-29T19:47:49.333Z,18.80
2022-08-29T19:50:17.263Z,18.70
2022-08-29T19:52:44.688Z,18.70
2022-08-29T19:55:14.138Z,18.60
2022-08-29T19:57:40.884Z,18.60
2022-08-29T20:00:14.027Z,18.50
2022-08-29T20:02:41.748Z,18.50
2022-08-29T20:05:12.334Z,18.40
2022-08-29T20:07:40.595Z,18.40
2022-08-29T20:10:13.330Z,18.40
2022-08-29T20:12:41.251Z,18.30
2022-08-29T20:15:10.140Z,18.30
2022-08-29T20:17:43.260Z,18.20
2022-08-29T20:20:20.355Z,18.20
2022-08-29T20:22:48.131Z,18.10
2022-08-29T20:25:16.181Z,18.10
2022-08-29T20:27:43.484Z,18.00
2022-08-29T20:30:13.764Z,18.00
2022-08-29T20:32:40.589Z,18.00
2022-08-29T20:35:07.889Z,17.90
2022-08-29T20:37:34.994Z,17.90
2022-08-29T20:40:01.945Z,17.80
2022-08-29T20:42:30.345Z,17.80
2022-08-29T20:44:57.816Z,17.70
2022-08-29T20:47:24.802Z,17.80
2022-08-29T20:49:55.565Z,17.80
2022-08-29T20:52:24.240Z,17.80
2022-08-29T20:54:51.830Z,17.80
2022-08-29T20:57:18.810Z,17.80
2022-08-29T20:59:45.530Z,17.80
2022-08-29T21:02:13.887Z,17.80
2022-08-29T21:04:59.380Z,17.90
2022-08-29T21:07:26.607Z,17.90
2022-08-29T21:09:54.859Z,17.80
2022-08-29T21:12:22.386Z,17.90
2022-08-29T21:14:54.758Z,17.80
2022-08-29T21:17:21.861Z,17.80
2022-08-29T21:19:48.688Z,17.80
2022-08-29T21:22:15.771Z,17.80
2022-08-29T21:24:43.221Z,17.70
2022-08-29T21:27:10.847Z,17.70
2022-08-29T21:29:37.783Z,17.70
2022-08-29T21:32:04.636Z,17.60
2022-08-29T21:34:31.606Z,17.60
2022-08-29T21:36:58.402Z,17.50
2022-08-29T21:39:28.379Z,17.50
2022-08-29T21:41:57.759Z,17.40
2022-08-29T21:44:27.071Z,17.40
2022-08-29T21:46:53.926Z,17.30
2022-08-29T21:49:21.853Z,17.30
2022-08-29T21:51:49.252Z,17.30
2022-08-29T21:54:17.692Z,17.20
2022-08-29T21:56:45.577Z,17.20
2022-08-29T21:59:13.732Z,17.10
2022-08-29T22:01:42.255Z,17.10
2022-08-29T22:04:11.938Z,17.10
2022-08-29T22:06:46.862Z,17.00
2022-08-29T22:09:19.678Z,17.00
2022-08-29T22:11:48.739Z,17.00
2022-08-29T22:14:15.649Z,16.90
2022-08-29T22:16:43.005Z,16.90
2022-08-29T22:19:15.770Z,16.90
2022-08-29T22:21:46.315Z,16.80
2022-08-29T22:24:15.029Z,16.80
2022-08-29T22:26:42.425Z,16.70
2022-08-29T22:29:12.088Z,16.70
2022-08-29T22:31:42.328Z,16.70
2022-08-29T22:34:14.022Z,16.50
2022-08-29T22:36:41.063Z,16.50
2022-08-29T22:39:08.065Z,16.40
2022-08-29T22:41:35.291Z,16.40
2022-08-29T22:44:42.365Z,16.30
2022-08-29T22:46:49.692Z,16.30
2022-08-29T22:49:16.459Z,16.30
2022-08-29T22:51:43.208Z,16.20
2022-08-29T22:54:28.831Z,16.00
2022-08-29T22:56:55.623Z,15.90
2022-08-29T22:59:22.396Z,15.90
2022-08-29T23:01:49.461Z,15.80
2022-08-29T23:04:16.280Z,15.70
2022-08-29T23:06:43.375Z,15.80
2022-08-29T23:09:10.510Z,15.80
2022-08-29T23:11:37.270Z,15.80
2022-08-29T23:14:04.615Z,15.80
2022-08-29T23:16:35.571Z,15.90
2022-08-29T23:19:03.388Z,15.80
2022-08-29T23:21:31.904Z,15.80
2022-08-29T23:23:59.503Z,15.80
2022-08-29T23:26:27.093Z,15.80
2022-08-29T23:28:54.730Z,15.80
2022-08-29T23:31:22.887Z,15.80
2022-08-29T23:33:50.035Z,15.80
2022-08-29T23:36:17.377Z,15.80
2022-08-29T23:38:44.556Z,15.80
2022-08-29T23:41:11.782Z,15.70
2022-08-29T23:43:38.513Z,15.60
2022-08-29T23:46:06.001Z,15.60
2022-08-29T23:48:33.296Z,15.50
2022-08-29T23:51:04.947Z,15.50
2022-08-29T23:53:31.790Z,15.50
2022-08-29T23:55:58.554Z,15.40
2022-08-29T23:58:25.526Z,15.40
